AirNav   Everest Fuels
 
 440 users online  

C98 Lake Village Airport
Lake Village, Indiana, USA

GOING TO LAKE VILLAGE?


FAA INFORMATION EFFECTIVE 15 JULY 2021

Location

FAA Identifier: C98
Lat/Long: 41-09-00.1240N 087-27-45.1180W
41-09.002067N 087-27.751967W
41.1500344,-87.4625328
(estimated)
Elevation: 644 ft. / 196 m (estimated)
Variation: 01W (1985)
From city: 1 mile NW of LAKE VILLAGE, IN
Time zone: UTC -5 (UTC -6 during Standard Time)
Zip code: 46349

Airport Operations

Airport use: Open to the public
Activation date: 03/1947
Control tower: no
ARTCC: CHICAGO CENTER
FSS: TERRE HAUTE FLIGHT SERVICE STATION
NOTAMs facility: HUF (NOTAM-D service available)
Attendance: SR-SS
Wind indicator: lighted
Segmented circle: no
Lights: ACTVT LIRL 18/36 CTAF;

Airport Communications

CTAF: 122.9
WX AWOS-AV at C56 (17 nm NW): 119.125 (708-534-5256)
WX AWOS-3P at RZL (18 nm SE): 119.175 (219-866-7167)
WX AWOS-3 at IKK (18 nm W): 128.475 (815-939-4044)

Nearby radio navigation aids

VOR radial/distance  VOR name  Freq  Var
EONr114/16.5PEOTONE VORTAC113.2002E
CGTr165/22.1CHICAGO HEIGHTS VORTAC114.2002E
OXIr254/38.1KNOX VOR/DME115.6000E
BVTr332/39.8BOILER VORTAC115.1001E

Airport Services

Parking: tiedowns
Airframe service: MAJOR
Powerplant service: MAJOR

Runway Information

Runway 18/36

Dimensions: 2000 x 140 ft. / 610 x 43 m
MID 38 FT ASPH.
Surface: turf, in fair condition
Runway edge lights: low intensity
Runway edge markings: 3 YELLOW TIRES/LGTS EACH SIDE.
RUNWAY 18  RUNWAY 36
Latitude: 41-09.132833N41-08.704667N
Longitude: 087-27.618500W087-27.618500W
Elevation: 640.0 ft.644.0 ft.
Traffic pattern: leftleft
Runway end identifier lights: nono
Obstructions: 10 ft. road, 250 ft. from runway, 25:1 slope to clear15 ft. road, 320 ft. from runway, 21:1 slope to clear

Airport Ownership and Management from official FAA records

Ownership: Privately-owned
Owner: MICHAEL STEINLE
3644 W. STATE ROAD 10
LAKE VILLAGE, IN 46349
Phone 219-992-9200
Manager: MICHAEL STEINLE
3644 W. STATE ROAD 10
LAKE VILLAGE, IN 46349
Phone 219-992-9200

Airport Operational Statistics

Aircraft based on the field: 16
Single engine airplanes: 12
Gliders airplanes: 4
    
Aircraft operations: avg 100/week *
67% local general aviation
33% transient general aviation
* for 12-month period ending 31 December 2019

Additional Remarks

VEHICLES ON ROAD SRNDG RWY.
DEER ON & INVOF ARPT.
FOR CD CTC CHICAGO ARTCC AT 630-906-8921.

Instrument Procedures

There are no published instrument procedures at C98.

Some nearby airports with instrument procedures:

C56 - Bult Field Airport (17 nm NW)
KRZL - Jasper County Airport (18 nm SE)
KIKK - Greater Kankakee Airport (18 nm W)
05C - Griffith-Merrillville Airport (22 nm N)
KIGQ - Lansing Municipal Airport (23 nm N)
 
Loc | Ops | Rwys | IFR | FBO | Links
Com | Nav | Svcs | Stats | Notes
Area around C98 (Lake Village Airport)
 
Road maps at: MapQuest Bing Google
 
Aerial photo
WARNING: Photo may not be current or correct
Aerial photo of C98 (Lake Village Airport)
Photo taken 17-Aug-2008

Do you have a better or more recent aerial photo of Lake Village Airport that you would like to share? If so, please send us your photo.

 
Sectional chart

 
Airport distance calculator
Flying to Lake Village Airport? Find the distance to fly.

From to C98

Sunrise and sunset
Times for 24-Jul-2021
 Local
(UTC-5)
 Zulu
(UTC)
Morning civil twilight05:0710:07
Sunrise05:3910:39
Sunset20:1401:14
Evening civil twilight20:4601:46

Current date and time
Zulu (UTC)  24-Jul-2021 07:58:04
Local (UTC-5)  24-Jul-2021 02:58:04
 
METAR
KRZL 
18nm SE 
240735Z AUTO 19004KT 4SM BR CLR 22/21 A3003 RMK AO2
KIKK 
18nm W 
240735Z AUTO 21003KT 5SM CLR 22/22 A3002 RMK AO2 PWINO
KIGQ 
23nm N 
240735Z AUTO 21006KT 5SM BR CLR 23/22 A3000 RMK AO2 T02270222
KVPZ 
28nm NE 
240656Z AUTO 21005KT 4SM BR CLR 23/21 A3002 RMK AO2 SLP157 T02280211 $
KGYY 
28nm N 
240735Z AUTO 19003KT 7SM CLR 24/22 A3000 RMK AO2 T02440216
TAF
KGYY 
28nm N 
240531Z 2406/2506 19006KT 6SM HZ FEW045 SCT250 TEMPO 2410/2413 5SM HZ FM241400 22012G22KT P6SM BKN050 BKN200 TEMPO 2422/2502 31020G35KT 3SM TSRA OVC035CB FM250200 25006KT P6SM FEW030 BKN045
NOTAMs
Click for the latest NOTAMs
NOTAMs are issued by the DoD/FAA and will open in a separate window not controlled by AirNav.

 

 
 

Would you like to see your business listed on this page?

 If your business provides an interesting product or service to pilots, flight crews, aircraft, or users of the Lake Village Airport, you should consider listing it here.  To start the listing process, click on the button below
 
Add a business
 

Other Pages about Lake Village Airport

Update a link
 
Copyright © AirNav, LLC. All rights reserved. Privacy Policy  Contact